Terminal Aerodrome Forecast
Issued by NWS

Home | Current Version | Previous Version | Text Only | Print | Product List | Glossary Off
Versions: 1 2 3 4 5 6 7 8 9 10 11 12 13 14 15

419
FTUS45 KGGW 020915 AAA
TAFSDY
TAF AMD
KSDY 020915Z 0209/0306 VRB03KT P6SM SCT025 OVC050
     FM021500 24005KT P6SM BKN020
     FM022100 20005KT P6SM SCT100=

USA.gov is the U.S. government's official web portal to all federal, state and local government web resources and services.